sensor_id;sensor_type;location;lat;lon;timestamp;P1;durP1;ratioP1;P2;durP2;ratioP2
81901;SDS011;71369;50.796;3.290;2024-03-08T00:02:13;25.42;;;13.85;;
81901;SDS011;71369;50.796;3.290;2024-03-08T00:04:39;28.20;;;14.35;;
81901;SDS011;71369;50.796;3.290;2024-03-08T00:07:08;27.77;;;13.95;;
81901;SDS011;71369;50.796;3.290;2024-03-08T00:09:33;28.90;;;15.63;;
81901;SDS011;71369;50.796;3.290;2024-03-08T00:11:59;27.70;;;13.23;;
81901;SDS011;71369;50.796;3.290;2024-03-08T00:14:25;28.88;;;14.55;;
81901;SDS011;71369;50.796;3.290;2024-03-08T00:16:50;26.38;;;13.88;;
81901;SDS011;71369;50.796;3.290;2024-03-08T00:19:17;23.00;;;13.07;;
81901;SDS011;71369;50.796;3.290;2024-03-08T00:21:43;32.20;;;15.40;;
81901;SDS011;71369;50.796;3.290;2024-03-08T00:24:10;27.38;;;13.85;;
81901;SDS011;71369;50.796;3.290;2024-03-08T00:26:35;31.08;;;14.85;;
81901;SDS011;71369;50.796;3.290;2024-03-08T00:29:01;30.77;;;15.85;;
81901;SDS011;71369;50.796;3.290;2024-03-08T00:31:29;26.10;;;13.60;;
81901;SDS011;71369;50.796;3.290;2024-03-08T00:33:56;25.05;;;14.18;;
81901;SDS011;71369;50.796;3.290;2024-03-08T00:36:22;31.98;;;15.65;;
81901;SDS011;71369;50.796;3.290;2024-03-08T00:38:48;29.45;;;14.60;;
81901;SDS011;71369;50.796;3.290;2024-03-08T00:41:13;28.15;;;14.98;;
81901;SDS011;71369;50.796;3.290;2024-03-08T00:43:39;27.17;;;14.48;;
81901;SDS011;71369;50.796;3.290;2024-03-08T00:46:05;31.73;;;15.90;;
81901;SDS011;71369;50.796;3.290;2024-03-08T00:48:30;27.67;;;14.13;;
81901;SDS011;71369;50.796;3.290;2024-03-08T00:50:56;29.88;;;15.98;;
81901;SDS011;71369;50.796;3.290;2024-03-08T00:53:22;31.38;;;15.45;;
81901;SDS011;71369;50.796;3.290;2024-03-08T00:55:48;28.27;;;14.73;;
81901;SDS011;71369;50.796;3.290;2024-03-08T00:58:14;28.63;;;14.45;;
81901;SDS011;71369;50.796;3.290;2024-03-08T01:00:40;29.58;;;14.68;;
81901;SDS011;71369;50.796;3.290;2024-03-08T01:03:05;26.80;;;13.77;;
81901;SDS011;71369;50.796;3.290;2024-03-08T01:05:31;35.03;;;14.30;;
81901;SDS011;71369;50.796;3.290;2024-03-08T01:07:57;27.77;;;13.50;;
81901;SDS011;71369;50.796;3.290;2024-03-08T01:10:23;32.00;;;14.57;;
81901;SDS011;71369;50.796;3.290;2024-03-08T01:12:49;32.13;;;14.70;;
81901;SDS011;71369;50.796;3.290;2024-03-08T01:15:19;30.73;;;14.70;;
81901;SDS011;71369;50.796;3.290;2024-03-08T01:17:45;27.90;;;13.88;;
81901;SDS011;71369;50.796;3.290;2024-03-08T01:20:11;31.35;;;16.08;;
81901;SDS011;71369;50.796;3.290;2024-03-08T01:22:37;29.67;;;15.35;;
81901;SDS011;71369;50.796;3.290;2024-03-08T01:25:03;26.58;;;14.48;;
81901;SDS011;71369;50.796;3.290;2024-03-08T01:27:30;28.63;;;13.77;;
81901;SDS011;71369;50.796;3.290;2024-03-08T01:29:56;27.25;;;14.30;;
81901;SDS011;71369;50.796;3.290;2024-03-08T01:32:24;30.10;;;13.88;;
81901;SDS011;71369;50.796;3.290;2024-03-08T01:34:50;28.50;;;14.75;;
81901;SDS011;71369;50.796;3.290;2024-03-08T01:37:15;25.40;;;13.55;;
81901;SDS011;71369;50.796;3.290;2024-03-08T01:39:41;33.83;;;15.07;;
81901;SDS011;71369;50.796;3.290;2024-03-08T01:42:07;30.65;;;14.48;;
81901;SDS011;71369;50.796;3.290;2024-03-08T01:44:33;27.08;;;13.32;;
81901;SDS011;71369;50.796;3.290;2024-03-08T01:46:59;26.00;;;13.52;;
81901;SDS011;71369;50.796;3.290;2024-03-08T01:49:25;30.25;;;14.63;;
81901;SDS011;71369;50.796;3.290;2024-03-08T01:51:53;25.75;;;13.80;;
81901;SDS011;71369;50.796;3.290;2024-03-08T01:54:21;26.80;;;13.57;;
81901;SDS011;71369;50.796;3.290;2024-03-08T01:56:48;30.92;;;14.68;;
81901;SDS011;71369;50.796;3.290;2024-03-08T01:59:14;28.33;;;13.65;;
81901;SDS011;71369;50.796;3.290;2024-03-08T02:01:41;24.90;;;13.30;;
81901;SDS011;71369;50.796;3.290;2024-03-08T02:04:08;29.25;;;13.90;;
81901;SDS011;71369;50.796;3.290;2024-03-08T02:06:34;32.75;;;14.05;;
81901;SDS011;71369;50.796;3.290;2024-03-08T02:08:59;29.23;;;13.57;;
81901;SDS011;71369;50.796;3.290;2024-03-08T02:11:25;29.33;;;13.50;;
81901;SDS011;71369;50.796;3.290;2024-03-08T02:13:51;24.70;;;13.15;;
81901;SDS011;71369;50.796;3.290;2024-03-08T02:16:21;32.08;;;13.93;;
81901;SDS011;71369;50.796;3.290;2024-03-08T02:18:47;30.27;;;15.57;;
81901;SDS011;71369;50.796;3.290;2024-03-08T02:21:13;26.40;;;13.63;;
81901;SDS011;71369;50.796;3.290;2024-03-08T02:23:43;26.85;;;13.90;;
81901;SDS011;71369;50.796;3.290;2024-03-08T02:26:08;30.48;;;14.77;;
81901;SDS011;71369;50.796;3.290;2024-03-08T02:28:34;26.88;;;14.52;;
81901;SDS011;71369;50.796;3.290;2024-03-08T02:31:01;29.27;;;14.13;;
81901;SDS011;71369;50.796;3.290;2024-03-08T02:33:27;25.50;;;13.23;;
81901;SDS011;71369;50.796;3.290;2024-03-08T02:35:54;30.50;;;14.27;;
81901;SDS011;71369;50.796;3.290;2024-03-08T02:38:21;24.58;;;13.45;;
81901;SDS011;71369;50.796;3.290;2024-03-08T02:40:51;30.95;;;14.02;;
81901;SDS011;71369;50.796;3.290;2024-03-08T02:43:18;28.58;;;14.57;;
81901;SDS011;71369;50.796;3.290;2024-03-08T02:45:45;28.13;;;14.00;;
81901;SDS011;71369;50.796;3.290;2024-03-08T02:48:11;30.13;;;13.77;;
81901;SDS011;71369;50.796;3.290;2024-03-08T02:50:38;29.42;;;14.30;;
81901;SDS011;71369;50.796;3.290;2024-03-08T02:53:07;28.05;;;14.10;;
81901;SDS011;71369;50.796;3.290;2024-03-08T02:55:34;26.27;;;13.35;;
81901;SDS011;71369;50.796;3.290;2024-03-08T02:58:01;26.20;;;14.00;;
81901;SDS011;71369;50.796;3.290;2024-03-08T03:00:28;26.73;;;13.20;;
81901;SDS011;71369;50.796;3.290;2024-03-08T03:02:57;25.75;;;12.13;;
81901;SDS011;71369;50.796;3.290;2024-03-08T03:05:23;24.80;;;14.02;;
81901;SDS011;71369;50.796;3.290;2024-03-08T03:07:49;26.20;;;12.95;;
81901;SDS011;71369;50.796;3.290;2024-03-08T03:10:18;26.63;;;13.05;;
81901;SDS011;71369;50.796;3.290;2024-03-08T03:12:44;28.88;;;13.30;;
81901;SDS011;71369;50.796;3.290;2024-03-08T03:15:11;25.42;;;13.52;;
81901;SDS011;71369;50.796;3.290;2024-03-08T03:17:38;31.52;;;13.98;;
81901;SDS011;71369;50.796;3.290;2024-03-08T03:20:07;30.67;;;14.70;;
81901;SDS011;71369;50.796;3.290;2024-03-08T03:22:39;30.60;;;14.00;;
81901;SDS011;71369;50.796;3.290;2024-03-08T03:25:06;31.33;;;13.68;;
81901;SDS011;71369;50.796;3.290;2024-03-08T03:27:35;27.30;;;13.50;;
81901;SDS011;71369;50.796;3.290;2024-03-08T03:30:02;34.17;;;14.68;;
81901;SDS011;71369;50.796;3.290;2024-03-08T03:32:53;36.63;;;13.85;;
81901;SDS011;71369;50.796;3.290;2024-03-08T03:35:25;28.17;;;14.48;;
81901;SDS011;71369;50.796;3.290;2024-03-08T03:37:51;28.90;;;13.10;;
81901;SDS011;71369;50.796;3.290;2024-03-08T03:40:32;27.85;;;13.85;;
81901;SDS011;71369;50.796;3.290;2024-03-08T03:42:59;29.48;;;14.35;;
81901;SDS011;71369;50.796;3.290;2024-03-08T03:45:26;30.55;;;15.38;;
81901;SDS011;71369;50.796;3.290;2024-03-08T03:47:52;30.08;;;16.00;;
81901;SDS011;71369;50.796;3.290;2024-03-08T03:50:18;31.08;;;14.65;;
81901;SDS011;71369;50.796;3.290;2024-03-08T03:52:44;26.48;;;14.80;;
81901;SDS011;71369;50.796;3.290;2024-03-08T03:55:14;25.77;;;13.50;;
81901;SDS011;71369;50.796;3.290;2024-03-08T03:57:40;35.17;;;15.32;;
81901;SDS011;71369;50.796;3.290;2024-03-08T04:00:06;26.95;;;15.00;;
81901;SDS011;71369;50.796;3.290;2024-03-08T04:02:36;28.98;;;14.88;;
81901;SDS011;71369;50.796;3.290;2024-03-08T04:05:03;35.90;;;16.42;;
81901;SDS011;71369;50.796;3.290;2024-03-08T04:07:30;28.42;;;14.43;;
81901;SDS011;71369;50.796;3.290;2024-03-08T04:09:55;28.88;;;14.50;;
81901;SDS011;71369;50.796;3.290;2024-03-08T04:12:21;34.25;;;15.93;;
81901;SDS011;71369;50.796;3.290;2024-03-08T04:14:48;27.75;;;15.25;;
81901;SDS011;71369;50.796;3.290;2024-03-08T04:17:13;34.15;;;15.15;;
81901;SDS011;71369;50.796;3.290;2024-03-08T04:19:39;32.53;;;16.17;;
81901;SDS011;71369;50.796;3.290;2024-03-08T04:22:05;30.63;;;16.05;;
81901;SDS011;71369;50.796;3.290;2024-03-08T04:24:34;33.00;;;16.25;;
81901;SDS011;71369;50.796;3.290;2024-03-08T04:27:00;34.10;;;16.33;;
81901;SDS011;71369;50.796;3.290;2024-03-08T04:29:26;28.60;;;14.52;;
81901;SDS011;71369;50.796;3.290;2024-03-08T04:31:52;32.15;;;16.05;;
81901;SDS011;71369;50.796;3.290;2024-03-08T04:34:21;33.20;;;15.15;;
81901;SDS011;71369;50.796;3.290;2024-03-08T04:36:47;32.45;;;15.45;;
81901;SDS011;71369;50.796;3.290;2024-03-08T04:39:13;31.88;;;15.50;;
81901;SDS011;71369;50.796;3.290;2024-03-08T04:41:40;32.40;;;16.63;;
81901;SDS011;71369;50.796;3.290;2024-03-08T04:44:08;33.92;;;16.10;;
81901;SDS011;71369;50.796;3.290;2024-03-08T04:46:35;35.15;;;16.65;;
81901;SDS011;71369;50.796;3.290;2024-03-08T04:49:01;30.23;;;16.10;;
81901;SDS011;71369;50.796;3.290;2024-03-08T04:51:27;34.20;;;16.60;;
81901;SDS011;71369;50.796;3.290;2024-03-08T04:53:52;35.30;;;17.15;;
81901;SDS011;71369;50.796;3.290;2024-03-08T04:56:20;33.58;;;16.75;;
81901;SDS011;71369;50.796;3.290;2024-03-08T04:58:46;33.08;;;17.35;;
81901;SDS011;71369;50.796;3.290;2024-03-08T05:01:12;34.70;;;17.40;;
81901;SDS011;71369;50.796;3.290;2024-03-08T05:03:38;36.78;;;18.27;;
81901;SDS011;71369;50.796;3.290;2024-03-08T05:06:06;34.97;;;16.83;;
81901;SDS011;71369;50.796;3.290;2024-03-08T05:08:31;30.20;;;16.60;;
81901;SDS011;71369;50.796;3.290;2024-03-08T05:11:00;32.97;;;17.92;;
81901;SDS011;71369;50.796;3.290;2024-03-08T05:13:31;35.17;;;16.17;;
81901;SDS011;71369;50.796;3.290;2024-03-08T05:15:56;31.02;;;15.80;;
81901;SDS011;71369;50.796;3.290;2024-03-08T05:18:23;30.88;;;16.92;;
81901;SDS011;71369;50.796;3.290;2024-03-08T05:20:49;33.33;;;17.10;;
81901;SDS011;71369;50.796;3.290;2024-03-08T05:23:19;36.28;;;17.60;;
81901;SDS011;71369;50.796;3.290;2024-03-08T05:25:45;35.15;;;17.02;;
81901;SDS011;71369;50.796;3.290;2024-03-08T05:28:14;35.58;;;17.65;;
81901;SDS011;71369;50.796;3.290;2024-03-08T05:30:42;38.95;;;18.00;;
81901;SDS011;71369;50.796;3.290;2024-03-08T05:33:07;38.83;;;16.42;;
81901;SDS011;71369;50.796;3.290;2024-03-08T05:35:36;28.85;;;15.30;;
81901;SDS011;71369;50.796;3.290;2024-03-08T05:38:02;34.40;;;17.65;;
81901;SDS011;71369;50.796;3.290;2024-03-08T05:40:28;35.97;;;18.52;;
81901;SDS011;71369;50.796;3.290;2024-03-08T05:42:57;35.42;;;18.27;;
81901;SDS011;71369;50.796;3.290;2024-03-08T05:45:24;34.25;;;18.80;;
81901;SDS011;71369;50.796;3.290;2024-03-08T05:47:50;31.13;;;17.10;;
81901;SDS011;71369;50.796;3.290;2024-03-08T05:50:17;37.78;;;17.33;;
81901;SDS011;71369;50.796;3.290;2024-03-08T05:52:43;37.80;;;18.67;;
81901;SDS011;71369;50.796;3.290;2024-03-08T05:55:08;38.00;;;19.20;;
81901;SDS011;71369;50.796;3.290;2024-03-08T05:57:34;33.42;;;17.67;;
81901;SDS011;71369;50.796;3.290;2024-03-08T06:00:05;37.55;;;17.63;;
81901;SDS011;71369;50.796;3.290;2024-03-08T06:02:32;35.78;;;18.75;;
81901;SDS011;71369;50.796;3.290;2024-03-08T06:04:58;38.78;;;19.33;;
81901;SDS011;71369;50.796;3.290;2024-03-08T06:07:23;32.30;;;18.35;;
81901;SDS011;71369;50.796;3.290;2024-03-08T06:09:49;35.83;;;18.60;;
81901;SDS011;71369;50.796;3.290;2024-03-08T06:12:15;39.00;;;19.50;;
81901;SDS011;71369;50.796;3.290;2024-03-08T06:14:44;31.48;;;16.17;;
81901;SDS011;71369;50.796;3.290;2024-03-08T06:17:10;34.80;;;17.25;;
81901;SDS011;71369;50.796;3.290;2024-03-08T06:19:36;36.50;;;17.02;;
81901;SDS011;71369;50.796;3.290;2024-03-08T06:22:02;31.60;;;18.70;;
81901;SDS011;71369;50.796;3.290;2024-03-08T06:24:31;32.28;;;17.85;;
81901;SDS011;71369;50.796;3.290;2024-03-08T06:26:57;38.00;;;19.02;;
81901;SDS011;71369;50.796;3.290;2024-03-08T06:29:23;38.13;;;19.00;;
81901;SDS011;71369;50.796;3.290;2024-03-08T06:31:48;35.22;;;17.92;;
81901;SDS011;71369;50.796;3.290;2024-03-08T06:34:14;37.08;;;18.27;;
81901;SDS011;71369;50.796;3.290;2024-03-08T06:36:40;40.10;;;19.00;;
81901;SDS011;71369;50.796;3.290;2024-03-08T06:39:06;35.20;;;18.55;;
81901;SDS011;71369;50.796;3.290;2024-03-08T06:41:38;32.65;;;17.67;;
81901;SDS011;71369;50.796;3.290;2024-03-08T06:44:03;36.65;;;18.45;;
81901;SDS011;71369;50.796;3.290;2024-03-08T06:46:30;36.65;;;18.83;;
81901;SDS011;71369;50.796;3.290;2024-03-08T06:48:55;35.97;;;16.90;;
81901;SDS011;71369;50.796;3.290;2024-03-08T06:51:21;34.28;;;18.65;;
81901;SDS011;71369;50.796;3.290;2024-03-08T06:53:47;35.95;;;17.85;;
81901;SDS011;71369;50.796;3.290;2024-03-08T06:56:14;32.55;;;17.10;;
81901;SDS011;71369;50.796;3.290;2024-03-08T06:58:40;36.55;;;17.30;;
81901;SDS011;71369;50.796;3.290;2024-03-08T07:01:06;35.70;;;17.90;;
81901;SDS011;71369;50.796;3.290;2024-03-08T07:03:32;32.65;;;17.30;;
81901;SDS011;71369;50.796;3.290;2024-03-08T07:05:58;30.02;;;17.50;;
81901;SDS011;71369;50.796;3.290;2024-03-08T07:08:24;35.60;;;18.08;;
81901;SDS011;71369;50.796;3.290;2024-03-08T07:10:51;37.72;;;19.02;;
81901;SDS011;71369;50.796;3.290;2024-03-08T07:13:18;27.48;;;15.80;;
81901;SDS011;71369;50.796;3.290;2024-03-08T07:15:46;32.70;;;16.45;;
81901;SDS011;71369;50.796;3.290;2024-03-08T07:18:11;33.42;;;16.75;;
81901;SDS011;71369;50.796;3.290;2024-03-08T07:20:40;28.65;;;15.43;;
81901;SDS011;71369;50.796;3.290;2024-03-08T07:23:07;30.30;;;16.33;;
81901;SDS011;71369;50.796;3.290;2024-03-08T07:25:33;30.42;;;16.83;;
81901;SDS011;71369;50.796;3.290;2024-03-08T07:28:00;31.77;;;16.17;;
81901;SDS011;71369;50.796;3.290;2024-03-08T07:30:26;26.85;;;15.80;;
81901;SDS011;71369;50.796;3.290;2024-03-08T07:33:11;30.90;;;16.27;;
81901;SDS011;71369;50.796;3.290;2024-03-08T07:35:39;30.73;;;16.60;;
81901;SDS011;71369;50.796;3.290;2024-03-08T07:38:06;31.23;;;16.27;;
81901;SDS011;71369;50.796;3.290;2024-03-08T07:40:36;30.02;;;16.33;;
81901;SDS011;71369;50.796;3.290;2024-03-08T07:43:14;29.00;;;16.27;;
81901;SDS011;71369;50.796;3.290;2024-03-08T07:45:39;31.23;;;15.07;;
81901;SDS011;71369;50.796;3.290;2024-03-08T07:48:05;29.23;;;16.33;;
81901;SDS011;71369;50.796;3.290;2024-03-08T07:50:38;25.63;;;14.93;;
81901;SDS011;71369;50.796;3.290;2024-03-08T07:53:04;29.13;;;15.73;;
81901;SDS011;71369;50.796;3.290;2024-03-08T07:55:33;26.67;;;14.65;;
81901;SDS011;71369;50.796;3.290;2024-03-08T07:58:00;28.88;;;17.35;;
81901;SDS011;71369;50.796;3.290;2024-03-08T08:00:27;28.08;;;15.05;;
81901;SDS011;71369;50.796;3.290;2024-03-08T08:02:55;23.90;;;14.18;;
81901;SDS011;71369;50.796;3.290;2024-03-08T08:05:21;26.15;;;15.73;;
81901;SDS011;71369;50.796;3.290;2024-03-08T08:07:46;25.13;;;15.60;;
81901;SDS011;71369;50.796;3.290;2024-03-08T08:10:12;26.75;;;14.80;;
81901;SDS011;71369;50.796;3.290;2024-03-08T08:12:48;27.60;;;14.68;;
81901;SDS011;71369;50.796;3.290;2024-03-08T08:15:14;25.73;;;14.68;;
81901;SDS011;71369;50.796;3.290;2024-03-08T08:17:41;30.75;;;16.80;;
81901;SDS011;71369;50.796;3.290;2024-03-08T08:20:07;25.73;;;15.25;;
81901;SDS011;71369;50.796;3.290;2024-03-08T08:22:34;27.15;;;16.00;;
81901;SDS011;71369;50.796;3.290;2024-03-08T08:25:00;26.90;;;15.63;;
81901;SDS011;71369;50.796;3.290;2024-03-08T08:27:26;25.50;;;15.07;;
81901;SDS011;71369;50.796;3.290;2024-03-08T08:29:52;27.17;;;14.60;;
81901;SDS011;71369;50.796;3.290;2024-03-08T08:32:18;25.92;;;14.82;;
81901;SDS011;71369;50.796;3.290;2024-03-08T08:34:44;29.08;;;15.75;;
81901;SDS011;71369;50.796;3.290;2024-03-08T08:37:09;23.58;;;14.00;;
81901;SDS011;71369;50.796;3.290;2024-03-08T08:39:35;26.95;;;15.23;;
81901;SDS011;71369;50.796;3.290;2024-03-08T08:42:03;24.08;;;14.77;;
81901;SDS011;71369;50.796;3.290;2024-03-08T08:44:29;27.10;;;15.55;;
81901;SDS011;71369;50.796;3.290;2024-03-08T08:46:56;25.33;;;15.32;;
81901;SDS011;71369;50.796;3.290;2024-03-08T08:49:23;24.10;;;14.32;;
81901;SDS011;71369;50.796;3.290;2024-03-08T08:51:49;23.50;;;14.02;;
81901;SDS011;71369;50.796;3.290;2024-03-08T08:54:15;25.38;;;14.95;;
81901;SDS011;71369;50.796;3.290;2024-03-08T08:56:42;20.70;;;13.48;;
81901;SDS011;71369;50.796;3.290;2024-03-08T08:59:10;24.30;;;15.15;;
81901;SDS011;71369;50.796;3.290;2024-03-08T09:01:39;24.88;;;15.32;;
81901;SDS011;71369;50.796;3.290;2024-03-08T09:04:05;26.42;;;15.07;;
81901;SDS011;71369;50.796;3.290;2024-03-08T09:06:32;22.50;;;14.05;;
81901;SDS011;71369;50.796;3.290;2024-03-08T09:08:58;24.55;;;15.00;;
81901;SDS011;71369;50.796;3.290;2024-03-08T09:11:24;22.05;;;13.75;;
81901;SDS011;71369;50.796;3.290;2024-03-08T09:13:50;23.33;;;14.45;;
81901;SDS011;71369;50.796;3.290;2024-03-08T09:16:16;26.63;;;15.15;;
81901;SDS011;71369;50.796;3.290;2024-03-08T09:18:41;23.83;;;13.60;;
81901;SDS011;71369;50.796;3.290;2024-03-08T09:21:07;27.33;;;14.63;;
81901;SDS011;71369;50.796;3.290;2024-03-08T09:23:35;23.85;;;15.00;;
81901;SDS011;71369;50.796;3.290;2024-03-08T09:26:04;26.80;;;15.02;;
81901;SDS011;71369;50.796;3.290;2024-03-08T09:28:30;24.20;;;15.25;;
81901;SDS011;71369;50.796;3.290;2024-03-08T09:30:55;23.52;;;13.73;;
81901;SDS011;71369;50.796;3.290;2024-03-08T09:33:21;19.58;;;13.40;;
81901;SDS011;71369;50.796;3.290;2024-03-08T09:35:47;21.75;;;13.80;;
81901;SDS011;71369;50.796;3.290;2024-03-08T09:38:13;24.38;;;14.73;;
81901;SDS011;71369;50.796;3.290;2024-03-08T09:40:41;21.73;;;13.57;;
81901;SDS011;71369;50.796;3.290;2024-03-08T09:43:07;21.05;;;13.73;;
81901;SDS011;71369;50.796;3.290;2024-03-08T09:45:36;22.38;;;14.32;;
81901;SDS011;71369;50.796;3.290;2024-03-08T09:48:05;23.38;;;14.68;;
81901;SDS011;71369;50.796;3.290;2024-03-08T09:50:42;24.25;;;15.00;;
81901;SDS011;71369;50.796;3.290;2024-03-08T09:53:08;24.52;;;15.30;;
81901;SDS011;71369;50.796;3.290;2024-03-08T09:55:37;23.40;;;14.20;;
81901;SDS011;71369;50.796;3.290;2024-03-08T09:58:06;22.27;;;13.95;;
81901;SDS011;71369;50.796;3.290;2024-03-08T10:00:55;22.90;;;13.02;;
81901;SDS011;71369;50.796;3.290;2024-03-08T10:03:26;23.65;;;14.68;;
81901;SDS011;71369;50.796;3.290;2024-03-08T10:05:52;22.85;;;13.88;;
81901;SDS011;71369;50.796;3.290;2024-03-08T10:08:23;22.67;;;14.43;;
81901;SDS011;71369;50.796;3.290;2024-03-08T10:10:50;25.25;;;13.48;;
81901;SDS011;71369;50.796;3.290;2024-03-08T10:13:16;23.73;;;14.48;;
81901;SDS011;71369;50.796;3.290;2024-03-08T10:15:44;21.77;;;13.13;;
81901;SDS011;71369;50.796;3.290;2024-03-08T10:18:11;23.88;;;14.45;;
81901;SDS011;71369;50.796;3.290;2024-03-08T10:20:37;20.80;;;13.18;;
81901;SDS011;71369;50.796;3.290;2024-03-08T10:23:03;21.20;;;13.98;;
81901;SDS011;71369;50.796;3.290;2024-03-08T10:25:35;20.25;;;13.55;;
81901;SDS011;71369;50.796;3.290;2024-03-08T10:28:06;21.10;;;13.60;;
81901;SDS011;71369;50.796;3.290;2024-03-08T10:30:32;21.58;;;13.80;;
81901;SDS011;71369;50.796;3.290;2024-03-08T10:32:58;21.77;;;14.13;;
81901;SDS011;71369;50.796;3.290;2024-03-08T10:35:23;20.50;;;14.40;;
81901;SDS011;71369;50.796;3.290;2024-03-08T10:37:52;22.65;;;13.63;;
81901;SDS011;71369;50.796;3.290;2024-03-08T10:40:24;21.65;;;13.75;;
81901;SDS011;71369;50.796;3.290;2024-03-08T10:42:51;21.20;;;13.13;;
81901;SDS011;71369;50.796;3.290;2024-03-08T10:48:25;23.05;;;14.35;;
81901;SDS011;71369;50.796;3.290;2024-03-08T10:51:07;19.80;;;12.85;;
81901;SDS011;71369;50.796;3.290;2024-03-08T10:53:36;20.70;;;13.13;;
81901;SDS011;71369;50.796;3.290;2024-03-08T10:56:04;19.42;;;12.90;;
81901;SDS011;71369;50.796;3.290;2024-03-08T10:58:30;25.23;;;14.20;;
81901;SDS011;71369;50.796;3.290;2024-03-08T11:00:57;22.83;;;13.50;;
81901;SDS011;71369;50.796;3.290;2024-03-08T11:08:43;21.33;;;13.15;;
81901;SDS011;71369;50.796;3.290;2024-03-08T11:11:23;21.10;;;13.35;;
81901;SDS011;71369;50.796;3.290;2024-03-08T11:13:55;22.33;;;13.95;;
81901;SDS011;71369;50.796;3.290;2024-03-08T11:21:29;22.05;;;13.88;;
81901;SDS011;71369;50.796;3.290;2024-03-08T11:24:07;23.75;;;13.82;;
81901;SDS011;71369;50.796;3.290;2024-03-08T11:26:34;19.40;;;12.68;;
81901;SDS011;71369;50.796;3.290;2024-03-08T11:31:52;20.80;;;13.15;;
81901;SDS011;71369;50.796;3.290;2024-03-08T11:34:42;21.48;;;12.90;;
81901;SDS011;71369;50.796;3.290;2024-03-08T11:37:14;19.90;;;12.82;;
81901;SDS011;71369;50.796;3.290;2024-03-08T11:42:14;21.65;;;13.02;;
81901;SDS011;71369;50.796;3.290;2024-03-08T11:44:42;18.10;;;11.88;;
81901;SDS011;71369;50.796;3.290;2024-03-08T11:47:09;21.75;;;14.20;;
81901;SDS011;71369;50.796;3.290;2024-03-08T11:49:36;20.50;;;13.20;;
81901;SDS011;71369;50.796;3.290;2024-03-08T11:52:02;21.08;;;13.02;;
81901;SDS011;71369;50.796;3.290;2024-03-08T11:54:28;19.17;;;13.00;;
81901;SDS011;71369;50.796;3.290;2024-03-08T11:56:55;19.92;;;11.68;;
81901;SDS011;71369;50.796;3.290;2024-03-08T11:59:30;19.48;;;12.45;;
81901;SDS011;71369;50.796;3.290;2024-03-08T12:02:16;19.10;;;12.02;;
81901;SDS011;71369;50.796;3.290;2024-03-08T12:04:44;22.60;;;12.90;;
81901;SDS011;71369;50.796;3.290;2024-03-08T12:07:11;22.17;;;13.57;;
81901;SDS011;71369;50.796;3.290;2024-03-08T12:09:39;21.25;;;13.63;;
81901;SDS011;71369;50.796;3.290;2024-03-08T12:12:06;20.70;;;13.43;;
81901;SDS011;71369;50.796;3.290;2024-03-08T12:14:35;20.17;;;12.23;;
81901;SDS011;71369;50.796;3.290;2024-03-08T12:17:01;20.50;;;13.00;;
81901;SDS011;71369;50.796;3.290;2024-03-08T12:19:28;18.45;;;12.38;;
81901;SDS011;71369;50.796;3.290;2024-03-08T12:21:54;17.83;;;11.93;;
81901;SDS011;71369;50.796;3.290;2024-03-08T12:24:20;22.42;;;12.95;;
81901;SDS011;71369;50.796;3.290;2024-03-08T12:26:46;22.30;;;12.77;;
81901;SDS011;71369;50.796;3.290;2024-03-08T12:31:53;17.88;;;12.23;;
81901;SDS011;71369;50.796;3.290;2024-03-08T12:34:23;18.83;;;12.18;;
81901;SDS011;71369;50.796;3.290;2024-03-08T12:36:50;19.55;;;12.13;;
81901;SDS011;71369;50.796;3.290;2024-03-08T12:39:19;18.73;;;11.32;;
81901;SDS011;71369;50.796;3.290;2024-03-08T12:41:52;17.67;;;11.63;;
81901;SDS011;71369;50.796;3.290;2024-03-08T12:44:19;18.90;;;12.85;;
81901;SDS011;71369;50.796;3.290;2024-03-08T12:46:46;17.73;;;12.18;;
81901;SDS011;71369;50.796;3.290;2024-03-08T12:49:13;18.40;;;11.43;;
81901;SDS011;71369;50.796;3.290;2024-03-08T12:51:43;19.85;;;13.23;;
81901;SDS011;71369;50.796;3.290;2024-03-08T12:54:09;21.95;;;12.82;;
81901;SDS011;71369;50.796;3.290;2024-03-08T12:56:35;17.52;;;11.45;;
81901;SDS011;71369;50.796;3.290;2024-03-08T12:59:02;21.13;;;13.10;;
81901;SDS011;71369;50.796;3.290;2024-03-08T13:01:33;16.23;;;11.77;;
81901;SDS011;71369;50.796;3.290;2024-03-08T13:04:02;19.80;;;12.80;;
81901;SDS011;71369;50.796;3.290;2024-03-08T13:06:29;19.52;;;12.38;;
81901;SDS011;71369;50.796;3.290;2024-03-08T13:08:56;17.45;;;12.38;;
81901;SDS011;71369;50.796;3.290;2024-03-08T13:11:23;18.88;;;12.07;;
81901;SDS011;71369;50.796;3.290;2024-03-08T13:13:49;17.75;;;12.07;;
81901;SDS011;71369;50.796;3.290;2024-03-08T13:16:15;21.02;;;11.55;;
81901;SDS011;71369;50.796;3.290;2024-03-08T13:18:43;18.80;;;11.57;;
81901;SDS011;71369;50.796;3.290;2024-03-08T13:21:09;18.33;;;12.20;;
81901;SDS011;71369;50.796;3.290;2024-03-08T13:23:38;17.70;;;11.52;;
81901;SDS011;71369;50.796;3.290;2024-03-08T13:26:08;18.77;;;12.05;;
81901;SDS011;71369;50.796;3.290;2024-03-08T13:28:37;19.40;;;12.40;;
81901;SDS011;71369;50.796;3.290;2024-03-08T13:31:06;22.05;;;11.55;;
81901;SDS011;71369;50.796;3.290;2024-03-08T13:33:35;21.35;;;11.30;;
81901;SDS011;71369;50.796;3.290;2024-03-08T13:36:07;16.42;;;11.18;;
81901;SDS011;71369;50.796;3.290;2024-03-08T13:38:40;18.45;;;12.18;;
81901;SDS011;71369;50.796;3.290;2024-03-08T13:41:08;16.65;;;10.75;;
81901;SDS011;71369;50.796;3.290;2024-03-08T13:43:34;17.52;;;11.82;;
81901;SDS011;71369;50.796;3.290;2024-03-08T13:46:01;16.20;;;11.02;;
81901;SDS011;71369;50.796;3.290;2024-03-08T13:48:27;18.35;;;11.48;;
81901;SDS011;71369;50.796;3.290;2024-03-08T13:50:53;18.23;;;11.30;;
81901;SDS011;71369;50.796;3.290;2024-03-08T13:53:20;17.20;;;10.98;;
81901;SDS011;71369;50.796;3.290;2024-03-08T13:55:46;18.15;;;11.07;;
81901;SDS011;71369;50.796;3.290;2024-03-08T13:58:11;19.45;;;11.38;;
81901;SDS011;71369;50.796;3.290;2024-03-08T14:00:39;20.83;;;11.48;;
81901;SDS011;71369;50.796;3.290;2024-03-08T14:03:08;19.05;;;11.55;;
81901;SDS011;71369;50.796;3.290;2024-03-08T14:05:35;17.02;;;12.07;;
81901;SDS011;71369;50.796;3.290;2024-03-08T14:08:04;17.40;;;11.65;;
81901;SDS011;71369;50.796;3.290;2024-03-08T14:10:32;20.17;;;12.18;;
81901;SDS011;71369;50.796;3.290;2024-03-08T14:12:59;18.95;;;12.57;;
81901;SDS011;71369;50.796;3.290;2024-03-08T14:15:25;18.95;;;12.80;;
81901;SDS011;71369;50.796;3.290;2024-03-08T14:17:55;19.75;;;12.55;;
81901;SDS011;71369;50.796;3.290;2024-03-08T14:20:22;18.38;;;11.30;;
81901;SDS011;71369;50.796;3.290;2024-03-08T14:22:54;18.52;;;11.80;;
81901;SDS011;71369;50.796;3.290;2024-03-08T14:25:20;20.15;;;12.10;;
81901;SDS011;71369;50.796;3.290;2024-03-08T14:27:48;18.38;;;11.05;;
81901;SDS011;71369;50.796;3.290;2024-03-08T14:30:15;21.20;;;12.13;;
81901;SDS011;71369;50.796;3.290;2024-03-08T14:35:26;21.77;;;11.50;;
81901;SDS011;71369;50.796;3.290;2024-03-08T14:37:55;23.65;;;12.65;;
81901;SDS011;71369;50.796;3.290;2024-03-08T14:40:22;20.35;;;11.18;;
81901;SDS011;71369;50.796;3.290;2024-03-08T14:42:49;20.17;;;11.13;;
81901;SDS011;71369;50.796;3.290;2024-03-08T14:45:15;21.25;;;11.82;;
81901;SDS011;71369;50.796;3.290;2024-03-08T14:47:44;19.52;;;11.30;;